Time;durP1;ratioP1;P1;durP2;ratioP2;P2;SDS_P1;SDS_P2;PMS_P1;PMS_P2;Temp;Humidity;BMP_temperature;BMP_pressure;BME280_temperature;BME280_humidity;BME280_pressure;Samples;Min_cycle;Max_cycle;Signal;HPM_P1;HPM_P2
2023/09/17 00:00:56;;;;;;;;;;;19.60;87.00;;;;;;5023350;28;20436;-69
2023/09/17 00:03:29;;;;;;;;;;;19.60;86.90;;;;;;5020540;28;20014;-69
2023/09/17 00:06:03;;;;;;;;;;;19.60;86.90;;;;;;5023410;28;19972;-69
2023/09/17 00:08:36;;;;;;;;;;;19.60;86.90;;;;;;5021975;28;20027;-68
2023/09/17 00:11:09;;;;;;;;;;;19.60;86.90;;;;;;5020345;28;20012;-68
2023/09/17 00:13:42;;;;;;;;;;;19.50;87.10;;;;;;5021538;28;19971;-69
2023/09/17 00:16:17;;;;;;;;;;;19.40;87.10;;;;;;5021168;28;20327;-69
2023/09/17 00:18:50;;;;;;;;;;;19.40;87.00;;;;;;5019494;28;19929;-68
2023/09/17 00:21:23;;;;;;;;;;;19.40;87.00;;;;;;5020399;28;19929;-69
2023/09/17 00:23:56;;;;;;;;;;;19.40;86.90;;;;;;5023724;28;19951;-69
2023/09/17 00:26:29;;;;;;;;;;;19.30;86.90;;;;;;5026605;28;19952;-69
2023/09/17 00:29:02;;;;;;;;;;;19.30;87.00;;;;;;5028409;28;19951;-69
2023/09/17 00:31:30;;;;;;;;;;;19.20;87.10;;;;;;5026128;28;19933;-70
2023/09/17 00:34:03;;;;;;;;;;;19.20;87.20;;;;;;5019745;28;20458;-68
2023/09/17 00:36:37;;;;;;;;;;;19.20;87.20;;;;;;5025403;28;20434;-69
2023/09/17 00:39:10;;;;;;;;;;;19.10;87.30;;;;;;5023101;28;19939;-69
2023/09/17 00:41:43;;;;;;;;;;;19.10;87.30;;;;;;5025209;28;20392;-70
2023/09/17 00:44:16;;;;;;;;;;;19.20;87.30;;;;;;5025713;28;20389;-69
2023/09/17 00:46:51;;;;;;;;;;;19.10;87.30;;;;;;5027176;28;19936;-70
2023/09/17 00:49:25;;;;;;;;;;;19.10;87.30;;;;;;5029474;28;20294;-70
2023/09/17 00:51:59;;;;;;;;;;;19.10;87.50;;;;;;5027152;28;19998;-69
2023/09/17 00:54:32;;;;;;;;;;;19.10;87.50;;;;;;5032367;28;19975;-69
2023/09/17 00:57:05;;;;;;;;;;;19.20;87.60;;;;;;5028720;28;19938;-69
2023/09/17 00:59:39;;;;;;;;;;;19.10;87.50;;;;;;5026332;28;20348;-69
2023/09/17 01:02:14;;;;;;;;;;;19.10;87.60;;;;;;5025933;28;19974;-69
2023/09/17 01:04:49;;;;;;;;;;;19.10;87.50;;;;;;5029302;28;19999;-69
2023/09/17 01:07:22;;;;;;;;;;;19.10;87.50;;;;;;5027494;28;19933;-69
2023/09/17 01:09:55;;;;;;;;;;;19.10;87.60;;;;;;5025132;28;20016;-69
2023/09/17 01:12:28;;;;;;;;;;;19.10;87.50;;;;;;5023944;28;19925;-69
2023/09/17 01:15:03;;;;;;;;;;;19.10;87.50;;;;;;5025616;28;19932;-70
2023/09/17 01:17:38;;;;;;;;;;;19.10;87.60;;;;;;5024816;28;20417;-69
2023/09/17 01:20:29;;;;;;;;;;;19.10;87.70;;;;;;5024875;28;20396;-70
2023/09/17 01:23:05;;;;;;;;;;;19.00;87.80;;;;;;5025803;28;19929;-69
2023/09/17 01:25:46;;;;;;;;;;;19.00;87.70;;;;;;5024749;28;19929;-69
2023/09/17 01:28:22;;;;;;;;;;;19.00;87.70;;;;;;5022234;28;20077;-69
2023/09/17 01:30:56;;;;;;;;;;;19.00;87.50;;;;;;5025551;28;20410;-69
2023/09/17 01:33:29;;;;;;;;;;;18.90;87.60;;;;;;5022454;28;19929;-69
2023/09/17 01:36:06;;;;;;;;;;;18.90;87.50;;;;;;5025817;28;19983;-69
2023/09/17 01:38:42;;;;;;;;;;;18.80;87.70;;;;;;5008061;28;19965;-68
2023/09/17 01:41:16;;;;;;;;;;;18.90;87.60;;;;;;5022346;28;19929;-69
2023/09/17 01:43:51;;;;;;;;;;;18.80;87.60;;;;;;5023484;28;19933;-74
2023/09/17 01:46:25;;;;;;;;;;;18.80;87.50;;;;;;5024025;28;19926;-73
2023/09/17 01:48:59;;;;;;;;;;;18.70;87.60;;;;;;5023530;28;20443;-72
2023/09/17 01:51:33;;;;;;;;;;;18.70;87.60;;;;;;5027371;28;19949;-73
2023/09/17 01:54:05;;;;;;;;;;;18.60;87.50;;;;;;5007998;28;19929;-72
2023/09/17 01:56:40;;;;;;;;;;;18.60;87.40;;;;;;5022576;28;19929;-74
2023/09/17 01:59:15;;;;;;;;;;;18.60;87.40;;;;;;5024305;28;20373;-73
2023/09/17 02:01:48;;;;;;;;;;;18.60;87.40;;;;;;5021929;28;20285;-73
2023/09/17 02:04:21;;;;;;;;;;;18.60;87.30;;;;;;5025015;28;19929;-72
2023/09/17 02:06:54;;;;;;;;;;;18.60;87.40;;;;;;5024073;28;19932;-74
2023/09/17 02:09:28;;;;;;;;;;;18.50;87.60;;;;;;5007161;28;19940;-74
2023/09/17 02:12:01;;;;;;;;;;;18.50;87.70;;;;;;5024000;28;19987;-75
2023/09/17 02:14:38;;;;;;;;;;;18.50;87.70;;;;;;5022974;28;19926;-72
2023/09/17 02:17:12;;;;;;;;;;;18.60;87.60;;;;;;5017286;28;20029;-72
2023/09/17 02:19:45;;;;;;;;;;;18.60;87.60;;;;;;5024146;28;19932;-75
2023/09/17 02:22:19;;;;;;;;;;;18.50;87.60;;;;;;5023157;28;19932;-73
2023/09/17 02:24:52;;;;;;;;;;;18.50;87.70;;;;;;5019239;28;19967;-75
2023/09/17 02:27:33;;;;;;;;;;;18.50;87.80;;;;;;5022922;28;19929;-73
2023/09/17 02:30:08;;;;;;;;;;;18.40;87.70;;;;;;5007227;28;19936;-74
2023/09/17 02:32:43;;;;;;;;;;;18.50;87.70;;;;;;5024211;28;20038;-74
2023/09/17 02:35:16;;;;;;;;;;;18.50;87.60;;;;;;5024083;28;19947;-71
2023/09/17 02:37:50;;;;;;;;;;;18.50;87.50;;;;;;5022897;28;19926;-74
2023/09/17 02:40:24;;;;;;;;;;;18.40;87.60;;;;;;5023586;28;20350;-73
2023/09/17 02:42:57;;;;;;;;;;;18.50;87.50;;;;;;5021715;28;19936;-73
2023/09/17 02:45:32;;;;;;;;;;;18.40;87.50;;;;;;5018066;28;19929;-73
2023/09/17 02:48:06;;;;;;;;;;;18.30;87.50;;;;;;5022970;28;19937;-74
2023/09/17 02:50:40;;;;;;;;;;;18.40;87.50;;;;;;5022420;28;19963;-72
2023/09/17 02:53:07;;;;;;;;;;;18.30;87.40;;;;;;5006088;28;19933;-67
2023/09/17 02:55:41;;;;;;;;;;;18.30;87.30;;;;;;5022691;28;19937;-67
2023/09/17 02:58:14;;;;;;;;;;;18.30;87.20;;;;;;5024711;28;19925;-67
2023/09/17 03:00:54;;;;;;;;;;;;;;;;;;5020637;28;19940;-66
2023/09/17 03:03:29;;;;;;;;;;;18.30;87.30;;;;;;5024245;28;20024;-66
2023/09/17 03:06:05;;;;;;;;;;;18.20;87.30;;;;;;5011589;28;19956;-66
2023/09/17 03:08:41;;;;;;;;;;;18.20;87.30;;;;;;5021723;28;20011;-66
2023/09/17 03:11:17;;;;;;;;;;;18.20;87.40;;;;;;5019741;28;19933;-66
2023/09/17 03:13:50;;;;;;;;;;;18.20;87.50;;;;;;5004594;28;19929;-65
2023/09/17 03:16:23;;;;;;;;;;;18.20;87.60;;;;;;5022731;28;19932;-65
2023/09/17 03:18:58;;;;;;;;;;;18.10;87.70;;;;;;5025620;28;19939;-66
2023/09/17 03:21:34;;;;;;;;;;;18.10;87.90;;;;;;5023571;28;19983;-67
2023/09/17 03:24:08;;;;;;;;;;;18.10;87.90;;;;;;5022626;28;20048;-68
2023/09/17 03:26:41;;;;;;;;;;;18.20;87.80;;;;;;5028186;28;19933;-67
2023/09/17 03:29:15;;;;;;;;;;;18.10;88.00;;;;;;5013918;28;19941;-68
2023/09/17 03:31:48;;;;;;;;;;;18.00;88.20;;;;;;5029278;28;19951;-67
2023/09/17 03:34:23;;;;;;;;;;;18.10;88.10;;;;;;5022668;28;19997;-67
2023/09/17 03:36:58;;;;;;;;;;;18.00;88.20;;;;;;5020502;28;19972;-67
2023/09/17 03:39:32;;;;;;;;;;;18.00;88.20;;;;;;5020971;28;19935;-67
2023/09/17 03:42:05;;;;;;;;;;;18.00;88.30;;;;;;5020917;28;20304;-68
2023/09/17 03:44:38;;;;;;;;;;;18.10;88.30;;;;;;5007332;28;19936;-67
2023/09/17 03:47:12;;;;;;;;;;;18.10;88.20;;;;;;5008974;28;19952;-67
2023/09/17 03:49:46;;;;;;;;;;;18.10;88.30;;;;;;5021472;28;19925;-67
2023/09/17 03:52:19;;;;;;;;;;;18.10;88.30;;;;;;5022503;28;20400;-67
2023/09/17 03:54:53;;;;;;;;;;;18.10;88.20;;;;;;5008731;28;19964;-67
2023/09/17 03:57:19;;;;;;;;;;;18.10;88.20;;;;;;5009658;28;19925;-67
2023/09/17 03:59:53;;;;;;;;;;;18.00;88.20;;;;;;5020583;28;19925;-67
2023/09/17 04:02:27;;;;;;;;;;;18.10;88.20;;;;;;5013183;28;19925;-67
2023/09/17 04:05:07;;;;;;;;;;;18.10;88.00;;;;;;5026813;28;20410;-66
2023/09/17 04:07:41;;;;;;;;;;;18.00;88.20;;;;;;5025801;28;19952;-67
2023/09/17 04:10:10;;;;;;;;;;;18.10;88.10;;;;;;5024658;28;19943;-68
2023/09/17 04:12:44;;;;;;;;;;;18.00;88.00;;;;;;5023955;28;19948;-66
2023/09/17 04:15:13;;;;;;;;;;;18.00;88.00;;;;;;5025247;28;20343;-67
2023/09/17 04:17:46;;;;;;;;;;;18.00;88.00;;;;;;5026655;28;19929;-67
2023/09/17 04:20:21;;;;;;;;;;;17.90;88.10;;;;;;5029692;28;19930;-67
2023/09/17 04:22:54;;;;;;;;;;;17.90;88.10;;;;;;5023691;28;19951;-67
2023/09/17 04:25:27;;;;;;;;;;;17.90;88.10;;;;;;5023394;28;20398;-67
2023/09/17 04:28:02;;;;;;;;;;;17.90;88.20;;;;;;5025183;28;19947;-67
2023/09/17 04:30:35;;;;;;;;;;;17.90;88.10;;;;;;5026876;28;19930;-67
2023/09/17 04:33:08;;;;;;;;;;;17.90;88.20;;;;;;5029185;28;19943;-68
2023/09/17 04:35:43;;;;;;;;;;;17.90;88.20;;;;;;5024825;28;19932;-67
2023/09/17 04:38:18;;;;;;;;;;;17.90;88.20;;;;;;5023914;28;19925;-67
2023/09/17 04:40:52;;;;;;;;;;;17.90;88.30;;;;;;5029993;28;19954;-67
2023/09/17 04:43:26;;;;;;;;;;;17.80;88.30;;;;;;5017852;28;19929;-67
2023/09/17 04:46:00;;;;;;;;;;;17.90;88.20;;;;;;5026459;28;20300;-67
2023/09/17 04:48:35;;;;;;;;;;;17.90;88.30;;;;;;5008505;28;19987;-66
2023/09/17 04:51:12;;;;;;;;;;;17.90;88.20;;;;;;5028943;28;20372;-67
2023/09/17 04:53:45;;;;;;;;;;;17.90;88.30;;;;;;5023174;28;20364;-67
2023/09/17 04:56:18;;;;;;;;;;;17.80;88.30;;;;;;5025020;28;20019;-66
2023/09/17 04:58:52;;;;;;;;;;;17.90;88.20;;;;;;5023957;28;19983;-66
2023/09/17 05:01:25;;;;;;;;;;;17.80;88.20;;;;;;5028664;28;19935;-66
2023/09/17 05:03:59;;;;;;;;;;;17.80;88.30;;;;;;5022920;28;19989;-66
2023/09/17 05:06:34;;;;;;;;;;;17.80;88.30;;;;;;5024055;28;19926;-66
2023/09/17 05:09:08;;;;;;;;;;;17.80;88.30;;;;;;5023489;28;19925;-68
2023/09/17 05:11:42;;;;;;;;;;;17.80;88.30;;;;;;5023811;28;19929;-74
2023/09/17 05:14:14;;;;;;;;;;;17.80;88.30;;;;;;5025068;28;19925;-74
2023/09/17 05:16:47;;;;;;;;;;;17.80;88.30;;;;;;5012327;28;19933;-74
2023/09/17 05:19:22;;;;;;;;;;;17.80;88.30;;;;;;5021851;28;19933;-73
2023/09/17 05:21:56;;;;;;;;;;;17.80;88.30;;;;;;5022508;28;20292;-73
2023/09/17 05:24:29;;;;;;;;;;;17.80;88.30;;;;;;5028454;28;20387;-73
2023/09/17 05:27:03;;;;;;;;;;;17.80;88.40;;;;;;5010249;28;19940;-73
2023/09/17 05:29:36;;;;;;;;;;;17.80;88.40;;;;;;5006747;28;19933;-73
2023/09/17 05:32:03;;;;;;;;;;;17.70;88.40;;;;;;5008850;28;20299;-73
2023/09/17 05:34:36;;;;;;;;;;;17.70;88.40;;;;;;5027664;28;19933;-73
2023/09/17 05:37:11;;;;;;;;;;;17.70;88.40;;;;;;5025245;28;19925;-74
2023/09/17 05:39:44;;;;;;;;;;;17.70;88.40;;;;;;5018722;28;19933;-75
2023/09/17 05:42:17;;;;;;;;;;;17.70;88.40;;;;;;5024500;28;19925;-74
2023/09/17 05:44:50;;;;;;;;;;;17.70;88.50;;;;;;5025987;28;19925;-72
2023/09/17 05:47:24;;;;;;;;;;;17.60;88.50;;;;;;5010556;28;19931;-72
2023/09/17 05:49:59;;;;;;;;;;;17.70;88.50;;;;;;5024475;28;19937;-74
2023/09/17 05:52:36;;;;;;;;;;;17.70;88.60;;;;;;5010850;28;19929;-73
2023/09/17 05:55:10;;;;;;;;;;;17.70;88.60;;;;;;5012331;28;19940;-75
2023/09/17 05:57:43;;;;;;;;;;;17.70;88.40;;;;;;5023198;28;19956;-74
2023/09/17 06:00:17;;;;;;;;;;;17.80;88.60;;;;;;5024844;28;19929;-73
2023/09/17 06:02:51;;;;;;;;;;;17.80;88.60;;;;;;5012504;28;19925;-74
2023/09/17 06:05:18;;;;;;;;;;;17.80;88.60;;;;;;5015459;28;19961;-74
2023/09/17 06:07:52;;;;;;;;;;;17.90;88.50;;;;;;5027722;28;21094;-74
2023/09/17 06:10:26;;;;;;;;;;;17.90;88.50;;;;;;5023853;28;19929;-72
2023/09/17 06:13:00;;;;;;;;;;;17.90;88.50;;;;;;5028968;28;19925;-77
2023/09/17 06:15:33;;;;;;;;;;;17.90;88.50;;;;;;5008749;28;20036;-74
2023/09/17 06:18:06;;;;;;;;;;;18.00;88.40;;;;;;5024646;28;19929;-74
2023/09/17 06:20:40;;;;;;;;;;;18.00;88.40;;;;;;5010166;28;19931;-74
2023/09/17 06:23:15;;;;;;;;;;;18.10;88.40;;;;;;5022746;28;20499;-70
2023/09/17 06:25:49;;;;;;;;;;;18.00;88.40;;;;;;5022029;28;19925;-70
2023/09/17 06:28:22;;;;;;;;;;;18.10;88.50;;;;;;5009586;28;20278;-73
2023/09/17 06:30:56;;;;;;;;;;;18.00;88.40;;;;;;5025624;28;20020;-71
2023/09/17 06:33:30;;;;;;;;;;;18.10;88.40;;;;;;5022314;28;19929;-70
2023/09/17 06:36:04;;;;;;;;;;;18.10;88.30;;;;;;5024093;28;20380;-71
2023/09/17 06:38:39;;;;;;;;;;;18.10;87.90;;;;;;5005577;28;19956;-71
2023/09/17 06:41:12;;;;;;;;;;;18.20;88.00;;;;;;5024186;28;19932;-71
2023/09/17 06:43:46;;;;;;;;;;;18.20;87.70;;;;;;5023153;28;19925;-70
2023/09/17 06:46:22;;;;;;;;;;;18.20;87.70;;;;;;5020035;28;20019;-70
2023/09/17 06:48:54;;;;;;;;;;;18.20;87.60;;;;;;5023525;28;20377;-71
2023/09/17 06:51:27;;;;;;;;;;;18.40;87.80;;;;;;5023204;28;20008;-70
2023/09/17 06:53:55;;;;;;;;;;;18.40;87.70;;;;;;5024136;28;20407;-70
2023/09/17 06:56:29;;;;;;;;;;;18.40;87.60;;;;;;5023551;28;19959;-71
2023/09/17 06:59:02;;;;;;;;;;;18.40;87.60;;;;;;5023084;28;20376;-71
2023/09/17 07:01:36;;;;;;;;;;;18.40;87.40;;;;;;5023310;28;19929;-70
2023/09/17 07:04:08;;;;;;;;;;;18.40;87.40;;;;;;5022481;28;20324;-70
2023/09/17 07:06:41;;;;;;;;;;;18.50;87.70;;;;;;5022526;28;20388;-70
2023/09/17 07:09:16;;;;;;;;;;;18.50;87.70;;;;;;5022224;28;20296;-69
2023/09/17 07:11:48;;;;;;;;;;;18.60;87.60;;;;;;5022576;28;19925;-71
2023/09/17 07:14:21;;;;;;;;;;;18.70;87.60;;;;;;5022639;28;19925;-70
2023/09/17 07:16:54;;;;;;;;;;;18.70;87.30;;;;;;5022638;28;19925;-69
2023/09/17 07:19:28;;;;;;;;;;;18.80;87.30;;;;;;5021736;28;19933;-70
2023/09/17 07:22:01;;;;;;;;;;;18.80;87.20;;;;;;5022772;28;20007;-71
2023/09/17 07:24:36;;;;;;;;;;;18.90;87.40;;;;;;5023027;28;19936;-69
2023/09/17 07:27:09;;;;;;;;;;;19.00;87.30;;;;;;5022505;28;19925;-69
2023/09/17 07:29:44;;;;;;;;;;;19.00;87.20;;;;;;5023310;28;19933;-70
2023/09/17 07:32:16;;;;;;;;;;;19.10;87.10;;;;;;5021659;28;19925;-72
2023/09/17 07:34:49;;;;;;;;;;;19.10;87.00;;;;;;5021057;28;19972;-72
2023/09/17 07:37:23;;;;;;;;;;;19.10;87.40;;;;;;5022713;28;19941;-72
2023/09/17 07:39:54;;;;;;;;;;;19.10;87.00;;;;;;5021530;28;19933;-73
2023/09/17 07:42:27;;;;;;;;;;;19.20;87.10;;;;;;5022919;28;20030;-72
2023/09/17 07:45:00;;;;;;;;;;;19.40;87.50;;;;;;5023925;28;19986;-72
2023/09/17 07:47:33;;;;;;;;;;;19.60;87.10;;;;;;5022426;28;19948;-72
2023/09/17 07:50:07;;;;;;;;;;;19.70;87.10;;;;;;5021940;28;20025;-73
2023/09/17 07:52:41;;;;;;;;;;;19.80;86.60;;;;;;5021281;28;19925;-73
2023/09/17 07:55:18;;;;;;;;;;;19.90;86.10;;;;;;5021836;28;19928;-72
2023/09/17 07:57:51;;;;;;;;;;;20.10;85.50;;;;;;5023385;28;19956;-72
2023/09/17 08:00:25;;;;;;;;;;;20.20;85.00;;;;;;5022330;28;19933;-73
2023/09/17 08:02:57;;;;;;;;;;;20.40;84.90;;;;;;5022848;28;20316;-73
2023/09/17 08:05:38;;;;;;;;;;;20.50;84.60;;;;;;5021838;28;20395;-73
2023/09/17 08:08:10;;;;;;;;;;;20.50;84.20;;;;;;5020060;28;19925;-72
2023/09/17 08:10:46;;;;;;;;;;;20.70;83.70;;;;;;5022417;28;19936;-72
2023/09/17 08:13:20;;;;;;;;;;;20.80;83.60;;;;;;5021388;28;19925;-72
2023/09/17 08:15:52;;;;;;;;;;;20.90;83.30;;;;;;5021833;28;20325;-73
2023/09/17 08:18:32;;;;;;;;;;;21.00;82.90;;;;;;5020197;28;19925;-73
2023/09/17 08:21:05;;;;;;;;;;;21.20;82.70;;;;;;5021720;28;19925;-73
2023/09/17 08:23:39;;;;;;;;;;;21.30;82.40;;;;;;5022380;28;19999;-73
2023/09/17 08:26:21;;;;;;;;;;;21.50;82.20;;;;;;5021594;28;20807;-71
2023/09/17 08:28:55;;;;;;;;;;;21.50;81.70;;;;;;5023032;28;19936;-72
2023/09/17 08:31:28;;;;;;;;;;;21.60;81.70;;;;;;5020474;28;19932;-72
2023/09/17 08:34:03;;;;;;;;;;;21.70;81.00;;;;;;5021237;28;19925;-72
2023/09/17 08:36:37;;;;;;;;;;;21.90;80.70;;;;;;5021528;28;20020;-71
2023/09/17 08:39:11;;;;;;;;;;;22.10;80.50;;;;;;5022801;28;19929;-71
2023/09/17 08:41:45;;;;;;;;;;;22.10;80.20;;;;;;5026932;28;19963;-72
2023/09/17 08:44:19;;;;;;;;;;;22.20;79.80;;;;;;5025767;28;20036;-72
2023/09/17 08:46:53;;;;;;;;;;;22.30;79.50;;;;;;5025571;28;19926;-72
2023/09/17 08:49:28;;;;;;;;;;;22.40;79.20;;;;;;5024597;28;20007;-72
2023/09/17 08:52:03;;;;;;;;;;;22.60;78.90;;;;;;5025528;28;20380;-74
2023/09/17 08:54:38;;;;;;;;;;;22.70;78.70;;;;;;5024738;28;19971;-73
2023/09/17 08:57:15;;;;;;;;;;;22.80;78.50;;;;;;5025502;28;19925;-73
2023/09/17 08:59:50;;;;;;;;;;;23.00;78.30;;;;;;5025100;28;19925;-73
2023/09/17 09:02:32;;;;;;;;;;;23.10;78.10;;;;;;5025953;28;19951;-73
2023/09/17 09:05:06;;;;;;;;;;;23.10;77.70;;;;;;5024441;28;19929;-73
2023/09/17 09:07:40;;;;;;;;;;;23.30;77.40;;;;;;5024762;28;20372;-73
2023/09/17 09:10:14;;;;;;;;;;;23.40;77.20;;;;;;5024117;28;20008;-73
2023/09/17 09:12:49;;;;;;;;;;;23.50;76.90;;;;;;5024963;28;19932;-73
2023/09/17 09:15:23;;;;;;;;;;;23.60;76.70;;;;;;5023324;28;20427;-73
2023/09/17 09:17:56;;;;;;;;;;;23.60;76.30;;;;;;5024730;28;19983;-73
2023/09/17 09:20:29;;;;;;;;;;;23.60;75.90;;;;;;5023586;28;20426;-73
2023/09/17 09:23:02;;;;;;;;;;;23.60;75.70;;;;;;5025610;28;20383;-72
2023/09/17 09:25:35;;;;;;;;;;;23.60;75.30;;;;;;5024216;28;19937;-73
2023/09/17 09:28:09;;;;;;;;;;;23.70;75.10;;;;;;5024449;28;19925;-71
2023/09/17 09:30:43;;;;;;;;;;;23.70;75.00;;;;;;5024922;28;19956;-73
2023/09/17 09:33:16;;;;;;;;;;;23.80;74.70;;;;;;5023888;28;19968;-72
2023/09/17 09:35:50;;;;;;;;;;;23.90;74.20;;;;;;5024109;28;19929;-72
2023/09/17 09:38:22;;;;;;;;;;;24.00;73.30;;;;;;5022789;28;19987;-72
2023/09/17 09:40:56;;;;;;;;;;;24.00;73.70;;;;;;5025418;28;19963;-73
2023/09/17 09:43:31;;;;;;;;;;;24.00;73.30;;;;;;5024135;28;20331;-72
2023/09/17 09:46:04;;;;;;;;;;;24.00;73.50;;;;;;5023953;28;19936;-74
2023/09/17 09:48:38;;;;;;;;;;;24.00;72.50;;;;;;5026194;28;19936;-73
2023/09/17 09:51:12;;;;;;;;;;;24.10;72.50;;;;;;5022324;28;19925;-74
2023/09/17 09:53:45;;;;;;;;;;;24.20;72.20;;;;;;5025514;28;20380;-70
2023/09/17 09:56:17;;;;;;;;;;;24.30;71.70;;;;;;5024337;28;19951;-69
2023/09/17 09:58:52;;;;;;;;;;;24.50;71.50;;;;;;5023770;28;20304;-69
2023/09/17 10:01:26;;;;;;;;;;;24.60;71.70;;;;;;5024146;28;19925;-70
2023/09/17 10:04:00;;;;;;;;;;;24.60;70.70;;;;;;5026662;28;19932;-70
2023/09/17 10:06:33;;;;;;;;;;;24.80;70.80;;;;;;5023593;28;19972;-69
2023/09/17 10:09:06;;;;;;;;;;;24.90;70.70;;;;;;5024978;28;19940;-70
2023/09/17 10:11:40;;;;;;;;;;;24.90;69.80;;;;;;5023509;28;19933;-70
2023/09/17 10:14:15;;;;;;;;;;;25.00;70.00;;;;;;5022988;28;19932;-68
2023/09/17 10:16:50;;;;;;;;;;;25.10;69.80;;;;;;5024591;28;19929;-69
2023/09/17 10:19:23;;;;;;;;;;;25.10;69.80;;;;;;5023508;28;19936;-69
2023/09/17 10:21:56;;;;;;;;;;;25.40;69.50;;;;;;5023858;28;19925;-69
2023/09/17 10:24:24;;;;;;;;;;;25.40;69.20;;;;;;5023036;28;20381;-69
2023/09/17 10:26:59;;;;;;;;;;;25.40;68.50;;;;;;5023885;28;19925;-70
2023/09/17 10:29:33;;;;;;;;;;;25.30;68.80;;;;;;5022080;28;19952;-69
2023/09/17 10:32:07;;;;;;;;;;;25.40;68.40;;;;;;5024707;28;19933;-69
2023/09/17 10:34:41;;;;;;;;;;;25.50;68.40;;;;;;5023764;28;19929;-69
2023/09/17 10:37:15;;;;;;;;;;;25.60;68.30;;;;;;5023388;28;19929;-69
2023/09/17 10:39:49;;;;;;;;;;;25.60;68.60;;;;;;5024875;28;20292;-70
2023/09/17 10:42:23;;;;;;;;;;;25.60;68.10;;;;;;5023642;28;19932;-69
2023/09/17 10:44:58;;;;;;;;;;;25.60;67.70;;;;;;5022594;28;19929;-68
2023/09/17 10:47:33;;;;;;;;;;;25.70;68.20;;;;;;5018623;28;19929;-70
2023/09/17 10:50:06;;;;;;;;;;;25.80;67.30;;;;;;5019505;28;19968;-69
2023/09/17 10:52:40;;;;;;;;;;;25.80;67.60;;;;;;5024991;28;19925;-69
2023/09/17 10:55:13;;;;;;;;;;;25.80;67.40;;;;;;5022146;28;19925;-68
2023/09/17 10:57:47;;;;;;;;;;;25.80;67.30;;;;;;5022775;28;19925;-69
2023/09/17 11:00:23;;;;;;;;;;;25.80;67.30;;;;;;5022385;28;19994;-69
2023/09/17 11:02:58;;;;;;;;;;;25.70;66.80;;;;;;5023386;28;19925;-70
2023/09/17 11:05:31;;;;;;;;;;;25.60;67.50;;;;;;5022497;28;19939;-71
2023/09/17 11:08:05;;;;;;;;;;;25.70;66.90;;;;;;5023268;28;20020;-71
2023/09/17 11:10:41;;;;;;;;;;;25.60;67.20;;;;;;5022661;28;20024;-71
2023/09/17 11:13:15;;;;;;;;;;;25.60;67.10;;;;;;5023325;28;19936;-70
2023/09/17 11:15:54;;;;;;;;;;;25.50;67.60;;;;;;5023436;28;19933;-71
2023/09/17 11:18:27;;;;;;;;;;;25.50;67.70;;;;;;5025505;28;19933;-70
2023/09/17 11:21:00;;;;;;;;;;;25.50;67.10;;;;;;5023692;28;20380;-71
2023/09/17 11:23:38;;;;;;;;;;;25.50;66.40;;;;;;5023684;28;20024;-71
2023/09/17 11:26:16;;;;;;;;;;;25.50;66.40;;;;;;5023062;28;19925;-69
2023/09/17 11:28:54;;;;;;;;;;;25.60;66.30;;;;;;5021866;28;19929;-70
2023/09/17 11:31:28;;;;;;;;;;;25.70;66.30;;;;;;5024407;28;20395;-69
2023/09/17 11:34:03;;;;;;;;;;;25.80;66.00;;;;;;5023435;28;19983;-70
2023/09/17 11:36:37;;;;;;;;;;;25.80;66.60;;;;;;5022928;28;19960;-70
2023/09/17 11:39:10;;;;;;;;;;;25.80;66.20;;;;;;5019622;28;19925;-69
2023/09/17 11:41:42;;;;;;;;;;;25.80;66.30;;;;;;5023350;28;20039;-70
2023/09/17 11:44:15;;;;;;;;;;;25.80;65.70;;;;;;5022803;28;20671;-70
2023/09/17 11:46:50;;;;;;;;;;;25.80;66.60;;;;;;5022736;28;19933;-69
2023/09/17 11:49:24;;;;;;;;;;;25.80;65.90;;;;;;5021331;28;19929;-69
2023/09/17 11:51:57;;;;;;;;;;;25.70;66.10;;;;;;5023033;28;19953;-70
2023/09/17 11:54:34;;;;;;;;;;;25.70;66.30;;;;;;5021062;28;19934;-70
2023/09/17 11:57:07;;;;;;;;;;;25.70;66.30;;;;;;5021773;28;19925;-70
2023/09/17 11:59:41;;;;;;;;;;;25.80;65.50;;;;;;5022609;28;20028;-70
2023/09/17 12:02:17;;;;;;;;;;;25.80;65.90;;;;;;5022334;28;20392;-70
2023/09/17 12:04:51;;;;;;;;;;;25.90;65.80;;;;;;5020933;28;19929;-70
2023/09/17 12:07:25;;;;;;;;;;;25.90;66.30;;;;;;5020673;28;19957;-70
2023/09/17 12:10:00;;;;;;;;;;;26.00;66.30;;;;;;5022354;28;19933;-70
2023/09/17 12:12:35;;;;;;;;;;;26.00;66.00;;;;;;5023191;28;19929;-72
2023/09/17 12:15:10;;;;;;;;;;;25.90;65.70;;;;;;5021982;28;20009;-71
2023/09/17 12:17:44;;;;;;;;;;;25.90;66.80;;;;;;5021987;28;19933;-72
2023/09/17 12:20:33;;;;;;;;;;;25.90;65.70;;;;;;5023596;28;19925;-72
2023/09/17 12:23:13;;;;;;;;;;;25.90;65.70;;;;;;5026746;28;19940;-74
2023/09/17 12:25:46;;;;;;;;;;;26.00;66.40;;;;;;5025575;28;20406;-73
2023/09/17 12:28:26;;;;;;;;;;;26.20;65.80;;;;;;5025110;28;19971;-71
2023/09/17 12:30:59;;;;;;;;;;;26.40;66.10;;;;;;5025629;28;21268;-73
2023/09/17 12:33:27;;;;;;;;;;;26.20;66.00;;;;;;5025215;28;19940;-72
2023/09/17 12:36:01;;;;;;;;;;;26.10;66.30;;;;;;5024573;28;19960;-73
2023/09/17 12:38:34;;;;;;;;;;;26.10;66.50;;;;;;5025263;28;19947;-73
2023/09/17 12:41:08;;;;;;;;;;;26.10;65.80;;;;;;5025270;28;19925;-74
2023/09/17 12:43:35;;;;;;;;;;;26.10;65.50;;;;;;5026417;28;19961;-74
2023/09/17 12:46:09;;;;;;;;;;;26.10;65.80;;;;;;5024991;28;19940;-72
2023/09/17 12:48:43;;;;;;;;;;;26.00;66.00;;;;;;5026718;28;19937;-71
2023/09/17 12:51:17;;;;;;;;;;;26.00;65.90;;;;;;5024416;28;19925;-72
2023/09/17 12:53:50;;;;;;;;;;;26.00;65.30;;;;;;5025715;28;19925;-72
2023/09/17 12:56:23;;;;;;;;;;;26.00;65.40;;;;;;5025007;28;20305;-72
2023/09/17 12:58:57;;;;;;;;;;;26.00;65.60;;;;;;5024356;28;19985;-72
2023/09/17 13:01:31;;;;;;;;;;;26.00;66.30;;;;;;5024771;28;20013;-73
2023/09/17 13:04:06;;;;;;;;;;;25.80;65.60;;;;;;5025162;28;19932;-72
2023/09/17 13:06:40;;;;;;;;;;;25.80;66.00;;;;;;5021336;28;19933;-72
2023/09/17 13:09:14;;;;;;;;;;;25.70;65.40;;;;;;5021946;28;20398;-72
2023/09/17 13:11:47;;;;;;;;;;;25.70;66.00;;;;;;5020742;28;19931;-73
2023/09/17 13:14:20;;;;;;;;;;;25.70;65.90;;;;;;5020609;28;19937;-75
2023/09/17 13:16:53;;;;;;;;;;;25.80;65.60;;;;;;5019922;28;19933;-72
2023/09/17 13:19:21;;;;;;;;;;;25.80;65.10;;;;;;5024700;28;20356;-73
2023/09/17 13:21:54;;;;;;;;;;;25.80;64.80;;;;;;5025559;28;19952;-68
2023/09/17 13:24:28;;;;;;;;;;;25.80;65.00;;;;;;5024377;28;19929;-67
2023/09/17 13:27:03;;;;;;;;;;;25.80;65.00;;;;;;5024672;28;20411;-68
2023/09/17 13:29:38;;;;;;;;;;;25.80;65.10;;;;;;5024039;28;19929;-67
2023/09/17 13:32:11;;;;;;;;;;;25.80;65.30;;;;;;5025139;28;19925;-69
2023/09/17 13:34:49;;;;;;;;;;;25.80;65.30;;;;;;5023956;28;19929;-68
2023/09/17 13:37:23;;;;;;;;;;;25.90;65.10;;;;;;5023725;28;20019;-67
2023/09/17 13:39:56;;;;;;;;;;;25.90;64.80;;;;;;5026512;28;19991;-67
2023/09/17 13:42:29;;;;;;;;;;;25.80;65.40;;;;;;5024859;28;19925;-68
2023/09/17 13:45:02;;;;;;;;;;;25.80;65.70;;;;;;5022399;28;19952;-68
2023/09/17 13:47:35;;;;;;;;;;;25.70;65.40;;;;;;5024070;28;19933;-68
2023/09/17 13:50:10;;;;;;;;;;;25.60;66.00;;;;;;5013057;28;19933;-67
2023/09/17 13:52:44;;;;;;;;;;;25.60;66.10;;;;;;5022248;28;19930;-69
2023/09/17 13:55:18;;;;;;;;;;;25.60;66.20;;;;;;5027244;28;19968;-69
2023/09/17 13:57:54;;;;;;;;;;;25.60;66.00;;;;;;5024769;28;20304;-68
2023/09/17 14:00:27;;;;;;;;;;;25.60;66.60;;;;;;5024063;28;24939;-67
2023/09/17 14:03:02;;;;;;;;;;;25.60;65.90;;;;;;5022792;28;20101;-68
2023/09/17 14:05:36;;;;;;;;;;;25.60;66.00;;;;;;5023920;28;19926;-67
2023/09/17 14:08:10;;;;;;;;;;;25.50;65.90;;;;;;5018616;28;20380;-68
2023/09/17 14:10:43;;;;;;;;;;;25.50;65.90;;;;;;5022080;28;19936;-68
2023/09/17 14:13:16;;;;;;;;;;;25.50;66.60;;;;;;5025325;28;20365;-68
2023/09/17 14:15:49;;;;;;;;;;;25.60;65.50;;;;;;5019390;28;19978;-67
2023/09/17 14:18:22;;;;;;;;;;;25.50;65.30;;;;;;5020818;28;19949;-68
2023/09/17 14:21:00;;;;;;;;;;;25.50;65.60;;;;;;5023810;28;19936;-68
2023/09/17 14:23:33;;;;;;;;;;;25.60;65.30;;;;;;5022487;28;19933;-68
2023/09/17 14:26:12;;;;;;;;;;;25.50;65.20;;;;;;5023159;28;19976;-68
2023/09/17 14:28:46;;;;;;;;;;;25.50;65.20;;;;;;5020145;28;20014;-67
2023/09/17 14:31:19;;;;;;;;;;;25.50;65.20;;;;;;5022216;28;19926;-68
2023/09/17 14:33:53;;;;;;;;;;;25.50;65.20;;;;;;5023195;28;20312;-67
2023/09/17 14:36:27;;;;;;;;;;;25.40;65.70;;;;;;5022517;28;19926;-67
2023/09/17 14:39:01;;;;;;;;;;;25.40;65.90;;;;;;5023810;28;19936;-68
2023/09/17 14:41:34;;;;;;;;;;;25.30;66.40;;;;;;5024698;28;20295;-67
2023/09/17 14:44:08;;;;;;;;;;;25.20;67.10;;;;;;5022856;28;19968;-67
2023/09/17 14:46:42;;;;;;;;;;;25.20;67.10;;;;;;5020590;28;19926;-67
2023/09/17 14:49:16;;;;;;;;;;;25.20;66.40;;;;;;5023920;28;19956;-67
2023/09/17 14:51:50;;;;;;;;;;;25.20;66.80;;;;;;5023935;28;19975;-67
2023/09/17 14:54:24;;;;;;;;;;;25.10;66.90;;;;;;5023539;28;19976;-67
2023/09/17 14:56:57;;;;;;;;;;;25.20;67.00;;;;;;5023985;28;19925;-67